sensor_id;sensor_type;location;lat;lon;timestamp;P1;durP1;ratioP1;P2;durP2;ratioP2
20365;SDS011;10341;49.894;8.822;2023-09-19T00:01:17;3.67;;;1.00;;
20365;SDS011;10341;49.894;8.822;2023-09-19T00:06:39;1.73;;;1.20;;
20365;SDS011;10341;49.894;8.822;2023-09-19T00:11:58;1.20;;;1.00;;
20365;SDS011;10341;49.894;8.822;2023-09-19T00:17:18;2.15;;;1.17;;
20365;SDS011;10341;49.894;8.822;2023-09-19T00:22:41;2.75;;;1.10;;
20365;SDS011;10341;49.894;8.822;2023-09-19T00:28:03;1.92;;;1.20;;
20365;SDS011;10341;49.894;8.822;2023-09-19T00:33:25;2.97;;;1.23;;
20365;SDS011;10341;49.894;8.822;2023-09-19T00:38:45;3.83;;;1.35;;
20365;SDS011;10341;49.894;8.822;2023-09-19T00:44:05;3.83;;;1.27;;
20365;SDS011;10341;49.894;8.822;2023-09-19T00:49:25;1.77;;;1.20;;
20365;SDS011;10341;49.894;8.822;2023-09-19T00:54:46;1.85;;;1.35;;
20365;SDS011;10341;49.894;8.822;2023-09-19T01:00:06;2.97;;;1.35;;
20365;SDS011;10341;49.894;8.822;2023-09-19T01:05:30;1.58;;;1.15;;
20365;SDS011;10341;49.894;8.822;2023-09-19T01:10:52;3.08;;;1.10;;
20365;SDS011;10341;49.894;8.822;2023-09-19T01:16:20;2.10;;;1.30;;
20365;SDS011;10341;49.894;8.822;2023-09-19T01:33:10;3.08;;;1.30;;
20365;SDS011;10341;49.894;8.822;2023-09-19T01:38:30;2.80;;;1.40;;
20365;SDS011;10341;49.894;8.822;2023-09-19T01:43:51;2.08;;;1.60;;
20365;SDS011;10341;49.894;8.822;2023-09-19T01:55:02;2.17;;;1.50;;
20365;SDS011;10341;49.894;8.822;2023-09-19T02:00:28;4.35;;;1.60;;
20365;SDS011;10341;49.894;8.822;2023-09-19T02:05:52;2.80;;;2.10;;
20365;SDS011;10341;49.894;8.822;2023-09-19T02:11:13;3.17;;;1.58;;
20365;SDS011;10341;49.894;8.822;2023-09-19T02:16:32;5.68;;;2.10;;
20365;SDS011;10341;49.894;8.822;2023-09-19T02:21:52;1.90;;;1.40;;
20365;SDS011;10341;49.894;8.822;2023-09-19T02:27:12;4.22;;;1.58;;
20365;SDS011;10341;49.894;8.822;2023-09-19T02:32:33;3.17;;;1.38;;
20365;SDS011;10341;49.894;8.822;2023-09-19T02:37:55;2.65;;;1.40;;
20365;SDS011;10341;49.894;8.822;2023-09-19T02:43:15;3.13;;;1.90;;
20365;SDS011;10341;49.894;8.822;2023-09-19T02:48:34;1.92;;;1.40;;
20365;SDS011;10341;49.894;8.822;2023-09-19T02:59:14;3.20;;;1.40;;
20365;SDS011;10341;49.894;8.822;2023-09-19T03:04:35;3.45;;;1.42;;
20365;SDS011;10341;49.894;8.822;2023-09-19T03:09:55;3.30;;;1.90;;
20365;SDS011;10341;49.894;8.822;2023-09-19T03:15:15;3.28;;;1.50;;
20365;SDS011;10341;49.894;8.822;2023-09-19T03:20:38;1.65;;;1.38;;
20365;SDS011;10341;49.894;8.822;2023-09-19T03:31:18;3.90;;;1.73;;
20365;SDS011;10341;49.894;8.822;2023-09-19T03:36:39;2.05;;;1.50;;
20365;SDS011;10341;49.894;8.822;2023-09-19T03:42:00;3.00;;;1.70;;
20365;SDS011;10341;49.894;8.822;2023-09-19T03:47:21;2.55;;;1.80;;
20365;SDS011;10341;49.894;8.822;2023-09-19T03:58:02;2.63;;;1.70;;
20365;SDS011;10341;49.894;8.822;2023-09-19T04:03:23;2.10;;;1.83;;
20365;SDS011;10341;49.894;8.822;2023-09-19T04:08:43;3.53;;;2.08;;
20365;SDS011;10341;49.894;8.822;2023-09-19T04:14:04;3.13;;;1.77;;
20365;SDS011;10341;49.894;8.822;2023-09-19T04:24:44;3.33;;;1.90;;
20365;SDS011;10341;49.894;8.822;2023-09-19T04:30:04;2.35;;;1.92;;
20365;SDS011;10341;49.894;8.822;2023-09-19T04:35:29;2.50;;;2.10;;
20365;SDS011;10341;49.894;8.822;2023-09-19T04:40:50;2.72;;;1.90;;
20365;SDS011;10341;49.894;8.822;2023-09-19T04:46:17;4.07;;;2.20;;
20365;SDS011;10341;49.894;8.822;2023-09-19T04:51:37;8.52;;;2.72;;
20365;SDS011;10341;49.894;8.822;2023-09-19T04:56:57;4.57;;;3.03;;
20365;SDS011;10341;49.894;8.822;2023-09-19T05:02:17;4.13;;;2.25;;
20365;SDS011;10341;49.894;8.822;2023-09-19T05:07:37;4.50;;;2.35;;
20365;SDS011;10341;49.894;8.822;2023-09-19T05:12:57;4.72;;;2.40;;
20365;SDS011;10341;49.894;8.822;2023-09-19T05:18:17;3.28;;;2.47;;
20365;SDS011;10341;49.894;8.822;2023-09-19T05:23:37;5.37;;;2.80;;
20365;SDS011;10341;49.894;8.822;2023-09-19T05:28:56;6.22;;;3.25;;
20365;SDS011;10341;49.894;8.822;2023-09-19T05:34:16;3.42;;;2.50;;
20365;SDS011;10341;49.894;8.822;2023-09-19T05:39:35;3.88;;;2.20;;
20365;SDS011;10341;49.894;8.822;2023-09-19T05:50:15;6.15;;;2.70;;
20365;SDS011;10341;49.894;8.822;2023-09-19T05:55:35;4.60;;;2.45;;
20365;SDS011;10341;49.894;8.822;2023-09-19T06:00:55;4.45;;;2.80;;
20365;SDS011;10341;49.894;8.822;2023-09-19T06:06:15;5.57;;;2.33;;
20365;SDS011;10341;49.894;8.822;2023-09-19T06:11:34;4.90;;;2.65;;
20365;SDS011;10341;49.894;8.822;2023-09-19T06:16:54;4.47;;;2.40;;
20365;SDS011;10341;49.894;8.822;2023-09-19T06:22:15;4.47;;;2.67;;
20365;SDS011;10341;49.894;8.822;2023-09-19T06:27:38;5.88;;;2.30;;
20365;SDS011;10341;49.894;8.822;2023-09-19T06:33:01;3.22;;;2.17;;
20365;SDS011;10341;49.894;8.822;2023-09-19T06:38:23;3.10;;;1.95;;
20365;SDS011;10341;49.894;8.822;2023-09-19T06:43:42;2.75;;;1.60;;
20365;SDS011;10341;49.894;8.822;2023-09-19T06:49:02;2.95;;;1.95;;
20365;SDS011;10341;49.894;8.822;2023-09-19T06:54:25;4.80;;;2.15;;
20365;SDS011;10341;49.894;8.822;2023-09-19T07:05:04;3.78;;;1.95;;
20365;SDS011;10341;49.894;8.822;2023-09-19T07:10:24;4.37;;;2.27;;
20365;SDS011;10341;49.894;8.822;2023-09-19T07:15:46;5.22;;;2.92;;
20365;SDS011;10341;49.894;8.822;2023-09-19T07:21:05;4.60;;;2.38;;
20365;SDS011;10341;49.894;8.822;2023-09-19T07:26:25;6.07;;;2.13;;
20365;SDS011;10341;49.894;8.822;2023-09-19T07:31:44;2.65;;;1.73;;
20365;SDS011;10341;49.894;8.822;2023-09-19T07:37:06;6.90;;;1.95;;
20365;SDS011;10341;49.894;8.822;2023-09-19T07:42:27;2.88;;;1.90;;
20365;SDS011;10341;49.894;8.822;2023-09-19T07:47:46;3.17;;;1.80;;
20365;SDS011;10341;49.894;8.822;2023-09-19T07:53:07;3.80;;;1.48;;
20365;SDS011;10341;49.894;8.822;2023-09-19T07:58:26;2.08;;;1.48;;
20365;SDS011;10341;49.894;8.822;2023-09-19T08:03:47;4.28;;;1.52;;
20365;SDS011;10341;49.894;8.822;2023-09-19T08:09:07;2.90;;;1.33;;
20365;SDS011;10341;49.894;8.822;2023-09-19T08:14:27;2.53;;;1.42;;
20365;SDS011;10341;49.894;8.822;2023-09-19T08:19:48;3.75;;;1.42;;
20365;SDS011;10341;49.894;8.822;2023-09-19T08:25:11;2.35;;;1.45;;
20365;SDS011;10341;49.894;8.822;2023-09-19T08:30:31;3.05;;;1.50;;
20365;SDS011;10341;49.894;8.822;2023-09-19T08:35:55;2.58;;;1.50;;
20365;SDS011;10341;49.894;8.822;2023-09-19T08:41:14;3.15;;;1.42;;
20365;SDS011;10341;49.894;8.822;2023-09-19T08:46:36;5.72;;;1.75;;
20365;SDS011;10341;49.894;8.822;2023-09-19T08:52:10;3.45;;;1.52;;
20365;SDS011;10341;49.894;8.822;2023-09-19T08:57:40;5.78;;;1.85;;
20365;SDS011;10341;49.894;8.822;2023-09-19T09:03:02;4.47;;;1.60;;
20365;SDS011;10341;49.894;8.822;2023-09-19T09:08:25;2.28;;;1.35;;
20365;SDS011;10341;49.894;8.822;2023-09-19T09:19:04;3.87;;;1.50;;
20365;SDS011;10341;49.894;8.822;2023-09-19T09:29:48;4.90;;;1.30;;
20365;SDS011;10341;49.894;8.822;2023-09-19T09:35:09;3.85;;;1.58;;
20365;SDS011;10341;49.894;8.822;2023-09-19T09:40:35;2.28;;;1.40;;
20365;SDS011;10341;49.894;8.822;2023-09-19T09:46:16;4.45;;;1.45;;
20365;SDS011;10341;49.894;8.822;2023-09-19T09:51:47;3.80;;;1.20;;
20365;SDS011;10341;49.894;8.822;2023-09-19T09:57:24;4.50;;;1.33;;
20365;SDS011;10341;49.894;8.822;2023-09-19T10:02:44;3.83;;;1.40;;
20365;SDS011;10341;49.894;8.822;2023-09-19T10:08:11;3.03;;;1.25;;
20365;SDS011;10341;49.894;8.822;2023-09-19T10:13:31;4.05;;;1.30;;
20365;SDS011;10341;49.894;8.822;2023-09-19T10:18:55;2.17;;;1.20;;
20365;SDS011;10341;49.894;8.822;2023-09-19T10:24:20;4.50;;;1.10;;
20365;SDS011;10341;49.894;8.822;2023-09-19T10:29:43;3.53;;;1.40;;
20365;SDS011;10341;49.894;8.822;2023-09-19T10:35:06;4.22;;;1.50;;
20365;SDS011;10341;49.894;8.822;2023-09-19T10:40:27;3.20;;;1.40;;
20365;SDS011;10341;49.894;8.822;2023-09-19T10:45:50;3.65;;;1.42;;
20365;SDS011;10341;49.894;8.822;2023-09-19T10:51:15;2.60;;;1.20;;
20365;SDS011;10341;49.894;8.822;2023-09-19T10:56:38;3.97;;;1.42;;
20365;SDS011;10341;49.894;8.822;2023-09-19T11:02:26;3.88;;;1.27;;
20365;SDS011;10341;49.894;8.822;2023-09-19T11:07:56;4.70;;;1.17;;
20365;SDS011;10341;49.894;8.822;2023-09-19T11:13:23;3.28;;;1.20;;
20365;SDS011;10341;49.894;8.822;2023-09-19T11:18:53;4.32;;;1.10;;
20365;SDS011;10341;49.894;8.822;2023-09-19T11:29:40;3.47;;;1.20;;
20365;SDS011;10341;49.894;8.822;2023-09-19T11:35:06;2.85;;;1.13;;
20365;SDS011;10341;49.894;8.822;2023-09-19T11:40:27;4.30;;;1.33;;
20365;SDS011;10341;49.894;8.822;2023-09-19T11:56:46;2.70;;;1.27;;
20365;SDS011;10341;49.894;8.822;2023-09-19T12:02:09;2.50;;;1.30;;
20365;SDS011;10341;49.894;8.822;2023-09-19T12:07:46;3.38;;;1.15;;
20365;SDS011;10341;49.894;8.822;2023-09-19T12:13:06;4.22;;;1.30;;
20365;SDS011;10341;49.894;8.822;2023-09-19T12:18:31;3.00;;;1.30;;
20365;SDS011;10341;49.894;8.822;2023-09-19T12:24:06;2.08;;;1.20;;
20365;SDS011;10341;49.894;8.822;2023-09-19T12:29:32;3.40;;;1.30;;
20365;SDS011;10341;49.894;8.822;2023-09-19T12:35:02;3.25;;;1.08;;
20365;SDS011;10341;49.894;8.822;2023-09-19T12:40:26;3.22;;;1.30;;
20365;SDS011;10341;49.894;8.822;2023-09-19T12:45:48;4.05;;;1.35;;
20365;SDS011;10341;49.894;8.822;2023-09-19T12:51:09;2.15;;;1.30;;
20365;SDS011;10341;49.894;8.822;2023-09-19T12:56:39;2.60;;;0.90;;
20365;SDS011;10341;49.894;8.822;2023-09-19T13:02:06;3.00;;;1.10;;
20365;SDS011;10341;49.894;8.822;2023-09-19T13:07:42;2.75;;;1.20;;
20365;SDS011;10341;49.894;8.822;2023-09-19T13:13:22;3.00;;;1.05;;
20365;SDS011;10341;49.894;8.822;2023-09-19T13:24:19;3.53;;;1.63;;
20365;SDS011;10341;49.894;8.822;2023-09-19T13:29:42;1.58;;;1.00;;
20365;SDS011;10341;49.894;8.822;2023-09-19T13:35:01;1.27;;;1.10;;
20365;SDS011;10341;49.894;8.822;2023-09-19T13:40:21;2.33;;;0.90;;
20365;SDS011;10341;49.894;8.822;2023-09-19T13:51:03;1.15;;;0.88;;
20365;SDS011;10341;49.894;8.822;2023-09-19T13:56:22;1.58;;;1.02;;
20365;SDS011;10341;49.894;8.822;2023-09-19T14:01:43;2.08;;;1.02;;
20365;SDS011;10341;49.894;8.822;2023-09-19T14:07:03;3.85;;;1.15;;
20365;SDS011;10341;49.894;8.822;2023-09-19T14:12:22;1.48;;;0.90;;
20365;SDS011;10341;49.894;8.822;2023-09-19T14:23:04;2.13;;;0.82;;
20365;SDS011;10341;49.894;8.822;2023-09-19T14:28:24;2.13;;;1.00;;
20365;SDS011;10341;49.894;8.822;2023-09-19T14:33:44;2.47;;;1.10;;
20365;SDS011;10341;49.894;8.822;2023-09-19T14:39:03;2.97;;;1.30;;
20365;SDS011;10341;49.894;8.822;2023-09-19T14:44:23;2.47;;;1.10;;
20365;SDS011;10341;49.894;8.822;2023-09-19T14:49:42;1.85;;;0.95;;
20365;SDS011;10341;49.894;8.822;2023-09-19T14:55:02;1.60;;;0.90;;
20365;SDS011;10341;49.894;8.822;2023-09-19T15:00:23;1.83;;;0.98;;
20365;SDS011;10341;49.894;8.822;2023-09-19T15:05:43;3.20;;;1.20;;
20365;SDS011;10341;49.894;8.822;2023-09-19T15:11:03;3.72;;;1.05;;
20365;SDS011;10341;49.894;8.822;2023-09-19T15:16:25;1.90;;;0.88;;
20365;SDS011;10341;49.894;8.822;2023-09-19T15:21:46;1.77;;;1.00;;
20365;SDS011;10341;49.894;8.822;2023-09-19T15:27:05;1.50;;;0.80;;
20365;SDS011;10341;49.894;8.822;2023-09-19T15:32:25;3.35;;;1.02;;
20365;SDS011;10341;49.894;8.822;2023-09-19T15:37:46;2.05;;;1.00;;
20365;SDS011;10341;49.894;8.822;2023-09-19T15:43:05;2.03;;;0.90;;
20365;SDS011;10341;49.894;8.822;2023-09-19T15:48:25;3.60;;;0.88;;
20365;SDS011;10341;49.894;8.822;2023-09-19T15:53:45;1.58;;;0.90;;
20365;SDS011;10341;49.894;8.822;2023-09-19T15:59:07;1.90;;;1.10;;
20365;SDS011;10341;49.894;8.822;2023-09-19T16:04:28;1.67;;;1.00;;
20365;SDS011;10341;49.894;8.822;2023-09-19T16:09:50;2.72;;;0.95;;
20365;SDS011;10341;49.894;8.822;2023-09-19T16:15:09;1.33;;;0.80;;
20365;SDS011;10341;49.894;8.822;2023-09-19T16:20:33;2.20;;;0.70;;
20365;SDS011;10341;49.894;8.822;2023-09-19T16:26:09;3.05;;;0.80;;
20365;SDS011;10341;49.894;8.822;2023-09-19T16:31:29;1.90;;;0.90;;
20365;SDS011;10341;49.894;8.822;2023-09-19T16:36:50;0.85;;;0.60;;
20365;SDS011;10341;49.894;8.822;2023-09-19T16:42:10;1.20;;;1.00;;
20365;SDS011;10341;49.894;8.822;2023-09-19T16:47:31;2.60;;;0.73;;
20365;SDS011;10341;49.894;8.822;2023-09-19T16:52:51;2.83;;;1.00;;
20365;SDS011;10341;49.894;8.822;2023-09-19T16:58:10;1.88;;;0.80;;
20365;SDS011;10341;49.894;8.822;2023-09-19T17:03:30;2.40;;;0.82;;
20365;SDS011;10341;49.894;8.822;2023-09-19T17:08:49;2.67;;;0.70;;
20365;SDS011;10341;49.894;8.822;2023-09-19T17:14:09;1.08;;;0.73;;
20365;SDS011;10341;49.894;8.822;2023-09-19T17:19:29;3.13;;;0.80;;
20365;SDS011;10341;49.894;8.822;2023-09-19T17:24:48;0.82;;;0.70;;
20365;SDS011;10341;49.894;8.822;2023-09-19T17:30:09;1.13;;;0.80;;
20365;SDS011;10341;49.894;8.822;2023-09-19T17:35:35;1.75;;;1.10;;
20365;SDS011;10341;49.894;8.822;2023-09-19T17:40:54;1.48;;;0.80;;
20365;SDS011;10341;49.894;8.822;2023-09-19T17:46:13;2.47;;;1.40;;
20365;SDS011;10341;49.894;8.822;2023-09-19T17:51:33;2.67;;;0.90;;
20365;SDS011;10341;49.894;8.822;2023-09-19T17:56:53;1.17;;;0.68;;
20365;SDS011;10341;49.894;8.822;2023-09-19T18:02:13;1.20;;;0.80;;
20365;SDS011;10341;49.894;8.822;2023-09-19T18:07:33;2.70;;;0.90;;
20365;SDS011;10341;49.894;8.822;2023-09-19T18:12:52;2.17;;;0.90;;
20365;SDS011;10341;49.894;8.822;2023-09-19T18:18:12;2.05;;;1.10;;
20365;SDS011;10341;49.894;8.822;2023-09-19T18:23:31;2.47;;;0.70;;
20365;SDS011;10341;49.894;8.822;2023-09-19T18:28:51;1.83;;;0.88;;
20365;SDS011;10341;49.894;8.822;2023-09-19T18:34:11;1.38;;;0.80;;
20365;SDS011;10341;49.894;8.822;2023-09-19T18:39:32;2.75;;;1.17;;
20365;SDS011;10341;49.894;8.822;2023-09-19T18:44:53;2.80;;;1.20;;
20365;SDS011;10341;49.894;8.822;2023-09-19T18:50:12;1.35;;;0.70;;
20365;SDS011;10341;49.894;8.822;2023-09-19T18:55:32;2.47;;;1.00;;
20365;SDS011;10341;49.894;8.822;2023-09-19T19:06:19;1.50;;;0.85;;
20365;SDS011;10341;49.894;8.822;2023-09-19T19:11:40;2.60;;;0.90;;
20365;SDS011;10341;49.894;8.822;2023-09-19T19:17:00;1.38;;;0.77;;
20365;SDS011;10341;49.894;8.822;2023-09-19T19:27:40;0.85;;;0.77;;
20365;SDS011;10341;49.894;8.822;2023-09-19T19:32:59;1.65;;;1.00;;
20365;SDS011;10341;49.894;8.822;2023-09-19T19:38:19;1.33;;;0.88;;
20365;SDS011;10341;49.894;8.822;2023-09-19T19:43:42;2.05;;;1.50;;
20365;SDS011;10341;49.894;8.822;2023-09-19T19:49:01;0.90;;;0.80;;
20365;SDS011;10341;49.894;8.822;2023-09-19T19:54:22;1.50;;;0.98;;
20365;SDS011;10341;49.894;8.822;2023-09-19T19:59:42;1.85;;;0.93;;
20365;SDS011;10341;49.894;8.822;2023-09-19T20:05:01;2.28;;;1.00;;
20365;SDS011;10341;49.894;8.822;2023-09-19T20:10:21;2.45;;;0.98;;
20365;SDS011;10341;49.894;8.822;2023-09-19T20:15:41;0.70;;;0.70;;
20365;SDS011;10341;49.894;8.822;2023-09-19T20:21:04;2.42;;;1.20;;
20365;SDS011;10341;49.894;8.822;2023-09-19T20:26:29;1.98;;;1.00;;
20365;SDS011;10341;49.894;8.822;2023-09-19T20:31:48;2.42;;;1.08;;
20365;SDS011;10341;49.894;8.822;2023-09-19T20:37:10;0.77;;;0.63;;
20365;SDS011;10341;49.894;8.822;2023-09-19T20:42:29;2.28;;;0.80;;
20365;SDS011;10341;49.894;8.822;2023-09-19T20:47:49;0.90;;;0.90;;
20365;SDS011;10341;49.894;8.822;2023-09-19T20:53:10;1.27;;;0.98;;
20365;SDS011;10341;49.894;8.822;2023-09-19T20:58:30;1.27;;;0.68;;
20365;SDS011;10341;49.894;8.822;2023-09-19T21:03:49;3.38;;;1.15;;
20365;SDS011;10341;49.894;8.822;2023-09-19T21:09:09;3.05;;;0.80;;
20365;SDS011;10341;49.894;8.822;2023-09-19T21:14:32;2.17;;;1.08;;
20365;SDS011;10341;49.894;8.822;2023-09-19T21:19:52;2.35;;;1.02;;
20365;SDS011;10341;49.894;8.822;2023-09-19T21:25:11;1.48;;;0.77;;
20365;SDS011;10341;49.894;8.822;2023-09-19T21:30:31;3.57;;;1.43;;
20365;SDS011;10341;49.894;8.822;2023-09-19T21:35:51;3.78;;;1.45;;
20365;SDS011;10341;49.894;8.822;2023-09-19T21:41:10;1.55;;;0.90;;
20365;SDS011;10341;49.894;8.822;2023-09-19T21:46:35;1.83;;;1.00;;
20365;SDS011;10341;49.894;8.822;2023-09-19T21:51:55;1.25;;;0.80;;
20365;SDS011;10341;49.894;8.822;2023-09-19T21:57:15;2.40;;;0.87;;
20365;SDS011;10341;49.894;8.822;2023-09-19T22:02:34;1.00;;;0.70;;
20365;SDS011;10341;49.894;8.822;2023-09-19T22:07:54;1.65;;;1.00;;
20365;SDS011;10341;49.894;8.822;2023-09-19T22:13:15;1.50;;;0.85;;
20365;SDS011;10341;49.894;8.822;2023-09-19T22:18:40;1.10;;;0.95;;
20365;SDS011;10341;49.894;8.822;2023-09-19T22:24:01;2.35;;;1.15;;
20365;SDS011;10341;49.894;8.822;2023-09-19T22:29:21;3.97;;;1.07;;
20365;SDS011;10341;49.894;8.822;2023-09-19T22:34:42;0.68;;;0.60;;
20365;SDS011;10341;49.894;8.822;2023-09-19T22:40:02;1.05;;;0.93;;
20365;SDS011;10341;49.894;8.822;2023-09-19T22:45:30;1.13;;;0.80;;
20365;SDS011;10341;49.894;8.822;2023-09-19T22:50:50;2.45;;;0.85;;
20365;SDS011;10341;49.894;8.822;2023-09-19T22:56:16;2.75;;;0.80;;
20365;SDS011;10341;49.894;8.822;2023-09-19T23:01:38;3.55;;;0.90;;
20365;SDS011;10341;49.894;8.822;2023-09-19T23:06:59;1.00;;;0.90;;
20365;SDS011;10341;49.894;8.822;2023-09-19T23:12:24;1.73;;;0.80;;
20365;SDS011;10341;49.894;8.822;2023-09-19T23:17:43;1.60;;;0.87;;
20365;SDS011;10341;49.894;8.822;2023-09-19T23:23:03;1.33;;;0.70;;
20365;SDS011;10341;49.894;8.822;2023-09-19T23:33:42;2.42;;;1.05;;
20365;SDS011;10341;49.894;8.822;2023-09-19T23:39:02;1.85;;;0.95;;
20365;SDS011;10341;49.894;8.822;2023-09-19T23:44:22;0.77;;;0.77;;
20365;SDS011;10341;49.894;8.822;2023-09-19T23:49:42;2.25;;;0.90;;
20365;SDS011;10341;49.894;8.822;2023-09-19T23:55:03;2.05;;;0.73;;
